Argyle, Georgia
Current Conditions -  °F | °C
As of 8:35 PM on Sunday 23 Nov 2014 (Local Time) from KHOE Reporting Station
Thunderstorm Thunderstorm  
Wind Chill: 66°   Ceiling: 11000
Heat Index: 66°   Visibility: 10mi
Dew Point: 66°   Wind: 6mph
Humidity: 100%   Direction: 160°SSE
Pressure: 29.87"   Gusts: NA
Location:  31.07°N, 82.65°W
Report Text: KHOE 240135Z AUTO 16005KT 10SM VCTS BKN110 19/19 A2987 RMK AO2 LTG DSNT E SE AND W
Loading
Personal Weather Stations






























Interactive Weather Map New forecast layout! Learn more

10-Day Weather Forecast

Advertisements
Track Severe Weather on mobile